createdAt,value
2018-01-06T00:02:01.121Z,74.70
2018-01-06T00:04:30.079Z,74.70
2018-01-06T00:06:58.157Z,74.20
2018-01-06T00:09:26.274Z,75.00
2018-01-06T00:11:54.552Z,74.90
2018-01-06T00:14:22.672Z,75.30
2018-01-06T00:16:50.808Z,75.40
2018-01-06T00:19:18.944Z,75.60
2018-01-06T00:21:47.841Z,75.60
2018-01-06T00:24:16.732Z,75.40
2018-01-06T00:26:45.621Z,76.00
2018-01-06T00:29:14.537Z,75.70
2018-01-06T00:31:42.680Z,75.40
2018-01-06T00:34:10.818Z,75.30
2018-01-06T00:36:38.933Z,75.80
2018-01-06T00:39:07.855Z,76.00
2018-01-06T00:41:36.005Z,76.00
2018-01-06T00:44:04.888Z,76.10
2018-01-06T00:46:33.783Z,76.60
2018-01-06T00:49:02.682Z,76.90
2018-01-06T00:51:30.821Z,76.90
2018-01-06T00:53:58.954Z,76.60
2018-01-06T00:56:27.101Z,76.80
2018-01-06T00:58:55.983Z,77.10
2018-01-06T01:01:25.343Z,77.40
2018-01-06T01:03:53.485Z,77.30
2018-01-06T01:06:21.605Z,77.80
2018-01-06T01:08:49.748Z,77.70
2018-01-06T01:11:17.872Z,76.60
2018-01-06T01:13:46.816Z,77.60
2018-01-06T01:16:14.971Z,77.60
2018-01-06T01:18:43.084Z,77.80
2018-01-06T01:21:11.212Z,78.00
2018-01-06T01:23:39.352Z,77.80
2018-01-06T01:26:08.274Z,77.50
2018-01-06T01:28:36.425Z,77.60
2018-01-06T01:31:05.325Z,77.50
2018-01-06T01:33:34.236Z,76.90
2018-01-06T01:36:02.357Z,76.20
2018-01-06T01:38:30.492Z,76.10
2018-01-06T01:40:58.600Z,76.60
2018-01-06T01:43:26.737Z,76.00
2018-01-06T01:45:54.886Z,76.80
2018-01-06T01:48:23.820Z,76.70
2018-01-06T01:50:51.983Z,76.20
2018-01-06T01:53:20.088Z,76.30
2018-01-06T01:55:48.216Z,75.80
2018-01-06T01:58:16.331Z,75.00
2018-01-06T02:00:44.463Z,75.00
2018-01-06T02:03:12.627Z,74.80
2018-01-06T02:05:40.801Z,74.70
2018-01-06T02:08:08.948Z,74.40
2018-01-06T02:10:37.076Z,74.00
2018-01-06T02:13:05.332Z,74.20
2018-01-06T02:15:33.460Z,74.20
2018-01-06T02:18:01.584Z,74.20
2018-01-06T02:20:29.692Z,74.40
2018-01-06T02:22:58.729Z,74.60
2018-01-06T02:25:26.839Z,74.40
2018-01-06T02:27:54.976Z,75.00
2018-01-06T02:30:23.099Z,75.40
2018-01-06T02:32:51.208Z,75.50
2018-01-06T02:35:20.133Z,75.70
2018-01-06T02:37:48.248Z,75.60
2018-01-06T02:40:16.372Z,76.00
2018-01-06T02:42:46.147Z,76.20
2018-01-06T02:45:14.320Z,76.00
2018-01-06T02:47:42.448Z,76.30
2018-01-06T02:50:11.099Z,77.20
2018-01-06T02:52:40.010Z,76.40
2018-01-06T02:55:08.223Z,76.60
2018-01-06T02:57:36.365Z,76.40
2018-01-06T03:00:04.639Z,75.80
2018-01-06T03:02:32.734Z,76.90
2018-01-06T03:05:00.857Z,76.00
2018-01-06T03:07:29.776Z,76.90
2018-01-06T03:09:57.920Z,76.90
2018-01-06T03:12:26.808Z,77.60
2018-01-06T03:14:55.755Z,77.80
2018-01-06T03:17:23.911Z,77.80
2018-01-06T03:19:52.032Z,77.60
2018-01-06T03:22:20.164Z,77.90
2018-01-06T03:24:48.286Z,78.00
2018-01-06T03:27:16.424Z,78.60
2018-01-06T03:29:44.529Z,79.00
2018-01-06T03:32:12.633Z,79.50
2018-01-06T03:34:40.772Z,79.80
2018-01-06T03:37:08.916Z,79.60
2018-01-06T03:39:37.073Z,79.50
2018-01-06T03:42:05.191Z,79.90
2018-01-06T03:44:33.295Z,80.00
2018-01-06T03:47:01.435Z,80.30
2018-01-06T03:49:29.561Z,80.30
2018-01-06T03:51:57.708Z,80.40
2018-01-06T03:54:26.617Z,81.10
2018-01-06T03:56:54.740Z,80.90
2018-01-06T03:59:22.916Z,81.00
2018-01-06T04:01:51.036Z,81.30
2018-01-06T04:04:19.196Z,81.40
2018-01-06T04:06:48.096Z,81.10
2018-01-06T04:09:16.227Z,81.00
2018-01-06T04:11:44.368Z,80.80
2018-01-06T04:14:13.250Z,81.30
2018-01-06T04:16:41.403Z,81.10
2018-01-06T04:19:10.279Z,81.40
2018-01-06T04:21:39.156Z,81.30
2018-01-06T04:24:07.306Z,81.50
2018-01-06T04:26:35.424Z,81.00
2018-01-06T04:29:04.434Z,82.20
2018-01-06T04:31:32.570Z,82.10
2018-01-06T04:34:00.734Z,82.30
2018-01-06T04:36:28.904Z,82.10
2018-01-06T04:38:57.035Z,81.60
2018-01-06T04:41:25.172Z,82.20
2018-01-06T04:43:54.047Z,81.90
2018-01-06T04:46:22.155Z,81.40
2018-01-06T04:48:50.286Z,80.50
2018-01-06T04:51:18.391Z,81.10
2018-01-06T04:53:47.304Z,81.70
2018-01-06T04:56:15.411Z,81.60
2018-01-06T04:58:43.912Z,80.80
2018-01-06T05:01:12.069Z,81.20
2018-01-06T05:03:40.210Z,81.00
2018-01-06T05:06:08.341Z,80.70
2018-01-06T05:08:36.510Z,81.00
2018-01-06T05:11:04.635Z,80.60
2018-01-06T05:13:32.774Z,81.00
2018-01-06T05:16:01.665Z,80.60
2018-01-06T05:18:30.580Z,80.60
2018-01-06T05:20:58.700Z,80.60
2018-01-06T05:23:26.807Z,81.10
2018-01-06T05:25:55.701Z,81.20
2018-01-06T05:28:24.579Z,81.10
2018-01-06T05:30:53.509Z,81.60
2018-01-06T05:33:21.616Z,81.60
2018-01-06T05:35:49.734Z,81.50
2018-01-06T05:38:17.896Z,81.70
2018-01-06T05:40:46.788Z,82.00
2018-01-06T05:43:15.692Z,81.80
2018-01-06T05:45:43.812Z,81.70
2018-01-06T05:48:11.931Z,81.70
2018-01-06T05:50:40.840Z,80.90
2018-01-06T05:53:08.980Z,80.80
2018-01-06T05:55:37.101Z,80.70
2018-01-06T05:58:05.236Z,81.20
2018-01-06T06:00:34.104Z,81.90
2018-01-06T06:03:02.232Z,81.80
2018-01-06T06:05:30.372Z,81.90
2018-01-06T06:07:59.312Z,82.20
2018-01-06T06:10:27.456Z,82.20
2018-01-06T06:12:55.582Z,82.30
2018-01-06T06:15:24.132Z,82.60
2018-01-06T06:17:52.252Z,82.60
2018-01-06T06:20:20.411Z,82.60
2018-01-06T06:22:48.523Z,82.50
2018-01-06T06:25:16.645Z,81.60
2018-01-06T06:27:44.783Z,82.40
2018-01-06T06:30:12.906Z,82.10
2018-01-06T06:32:41.131Z,81.20
2018-01-06T06:35:09.247Z,82.10
2018-01-06T06:37:37.352Z,82.60
2018-01-06T06:40:06.242Z,84.10
2018-01-06T06:42:35.127Z,84.80
2018-01-06T06:45:04.053Z,85.40
2018-01-06T06:47:32.169Z,84.70
2018-01-06T06:50:00.280Z,84.80
2018-01-06T06:52:29.192Z,84.60
2018-01-06T06:54:57.320Z,84.50
2018-01-06T06:57:25.466Z,84.20
2018-01-06T06:59:53.820Z,83.90
2018-01-06T07:02:21.968Z,83.50
2018-01-06T07:04:50.937Z,85.20
2018-01-06T07:07:19.056Z,85.10
2018-01-06T07:09:47.199Z,84.90
2018-01-06T07:12:16.084Z,85.50
2018-01-06T07:14:44.979Z,86.10
2018-01-06T07:17:13.893Z,85.70
2018-01-06T07:19:42.017Z,85.90
2018-01-06T07:22:10.143Z,85.70
2018-01-06T07:24:38.257Z,85.20
2018-01-06T07:27:06.369Z,85.60
2018-01-06T07:29:35.314Z,86.40
2018-01-06T07:32:03.515Z,86.10
2018-01-06T07:34:31.641Z,85.80
2018-01-06T07:36:59.778Z,87.00
2018-01-06T07:39:28.664Z,86.00
2018-01-06T07:41:57.554Z,85.80
2018-01-06T07:44:26.464Z,85.10
2018-01-06T07:46:54.591Z,84.80
2018-01-06T07:49:22.754Z,84.50
2018-01-06T07:51:50.903Z,84.40
2018-01-06T07:54:19.044Z,85.60
2018-01-06T07:56:47.962Z,85.80
2018-01-06T07:59:16.088Z,85.20
2018-01-06T08:01:44.205Z,85.70
2018-01-06T08:04:12.333Z,86.10
2018-01-06T08:06:40.454Z,86.10
2018-01-06T08:09:08.600Z,86.40
2018-01-06T08:11:37.500Z,86.40
2018-01-06T08:14:06.386Z,85.90
2018-01-06T08:16:35.304Z,85.00
2018-01-06T08:19:03.491Z,85.00
2018-01-06T08:21:31.654Z,85.10
2018-01-06T08:23:59.766Z,85.10
2018-01-06T08:26:27.892Z,85.50
2018-01-06T08:28:56.075Z,85.50
2018-01-06T08:31:24.265Z,85.60
2018-01-06T08:33:52.432Z,85.40
2018-01-06T08:36:20.558Z,85.60
2018-01-06T08:38:49.450Z,84.40
2018-01-06T08:41:17.652Z,84.30
2018-01-06T08:43:45.788Z,84.90
2018-01-06T08:46:13.913Z,84.00
2018-01-06T08:48:42.088Z,84.20
2018-01-06T08:51:10.204Z,84.40
2018-01-06T08:53:38.354Z,83.90
2018-01-06T08:56:06.509Z,84.30
2018-01-06T08:58:34.688Z,84.40
2018-01-06T09:01:02.864Z,83.30
2018-01-06T09:03:31.376Z,83.00
2018-01-06T09:05:59.512Z,83.10
2018-01-06T09:08:27.724Z,82.10
2018-01-06T09:10:55.855Z,82.50
2018-01-06T09:13:24.041Z,82.00
2018-01-06T09:15:52.172Z,82.00
2018-01-06T09:18:21.065Z,82.30
2018-01-06T09:20:49.249Z,82.10
2018-01-06T09:23:17.384Z,81.30
2018-01-06T09:25:45.529Z,82.80
2018-01-06T09:28:13.690Z,83.50
2018-01-06T09:30:41.941Z,83.80
2018-01-06T09:33:10.142Z,83.80
2018-01-06T09:35:38.319Z,83.60
2018-01-06T09:38:06.468Z,83.70
2018-01-06T09:40:35.359Z,83.50
2018-01-06T09:43:03.537Z,83.60
2018-01-06T09:45:31.668Z,83.30
2018-01-06T09:47:59.840Z,82.20
2018-01-06T09:50:28.012Z,82.80
2018-01-06T09:52:56.191Z,81.80
2018-01-06T09:55:24.401Z,82.60
2018-01-06T09:57:53.406Z,83.40
2018-01-06T10:00:21.576Z,83.30
2018-01-06T10:02:50.456Z,83.00
2018-01-06T10:05:19.428Z,82.30
2018-01-06T10:07:47.600Z,82.10
2018-01-06T10:10:15.743Z,81.00
2018-01-06T10:12:43.881Z,80.90
2018-01-06T10:15:12.044Z,80.40
2018-01-06T10:17:40.990Z,80.30
2018-01-06T10:20:09.196Z,80.10
2018-01-06T10:22:37.353Z,81.50
2018-01-06T10:25:05.527Z,81.20
2018-01-06T10:27:33.682Z,80.30
2018-01-06T10:30:01.847Z,79.50
2018-01-06T10:32:30.004Z,80.10
2018-01-06T10:34:58.126Z,80.40
2018-01-06T10:37:26.291Z,80.70
2018-01-06T10:39:54.396Z,81.30
2018-01-06T10:42:23.314Z,80.30
2018-01-06T10:44:51.470Z,80.10
2018-01-06T10:47:19.613Z,79.20
2018-01-06T10:49:47.734Z,79.20
2018-01-06T10:52:15.838Z,78.70
2018-01-06T10:54:43.956Z,79.70
2018-01-06T10:57:13.073Z,79.90
2018-01-06T10:59:41.262Z,79.70
2018-01-06T11:02:09.393Z,79.90
2018-01-06T11:04:38.324Z,79.70
2018-01-06T11:07:06.457Z,79.50
2018-01-06T11:09:35.361Z,81.00
2018-01-06T11:12:04.283Z,81.30
2018-01-06T11:14:32.396Z,81.00
2018-01-06T11:17:00.528Z,81.50
2018-01-06T11:19:28.664Z,81.50
2018-01-06T11:21:57.578Z,80.30
2018-01-06T11:24:25.730Z,80.00
2018-01-06T11:26:54.632Z,81.10
2018-01-06T11:29:23.642Z,81.00
2018-01-06T11:31:51.760Z,80.80
2018-01-06T11:34:19.884Z,80.70
2018-01-06T11:36:48.086Z,79.80
2018-01-06T11:39:16.977Z,79.30
2018-01-06T11:41:45.088Z,79.00
2018-01-06T11:44:13.215Z,79.40
2018-01-06T11:46:41.343Z,79.00
2018-01-06T11:49:10.267Z,78.80
2018-01-06T11:51:38.389Z,78.90
2018-01-06T11:54:06.501Z,78.30
2018-01-06T11:56:34.670Z,78.80
2018-01-06T11:59:03.571Z,78.90
2018-01-06T12:01:31.732Z,78.80
2018-01-06T12:04:00.622Z,78.90
2018-01-06T12:06:29.572Z,78.90
2018-01-06T12:08:57.732Z,78.80
2018-01-06T12:11:25.888Z,79.20
2018-01-06T12:13:54.008Z,78.80
2018-01-06T12:16:22.138Z,78.20
2018-01-06T12:18:50.319Z,78.30
2018-01-06T12:21:18.441Z,78.00
2018-01-06T12:23:46.593Z,77.70
2018-01-06T12:26:14.745Z,78.20
2018-01-06T12:28:42.888Z,77.50
2018-01-06T12:31:11.033Z,77.40
2018-01-06T12:33:39.167Z,77.90
2018-01-06T12:36:07.319Z,78.50
2018-01-06T12:38:35.432Z,78.00
2018-01-06T12:41:03.602Z,79.40
2018-01-06T12:43:31.716Z,79.00
2018-01-06T12:46:00.648Z,79.00
2018-01-06T12:48:28.781Z,78.40
2018-01-06T12:50:57.712Z,79.10
2018-01-06T12:53:25.855Z,78.80
2018-01-06T12:55:54.041Z,78.00
2018-01-06T12:58:22.170Z,78.10
2018-01-06T13:00:50.277Z,78.70
2018-01-06T13:03:18.413Z,77.20
2018-01-06T13:05:46.564Z,79.30
2018-01-06T13:08:14.688Z,76.80
2018-01-06T13:10:43.613Z,77.40
2018-01-06T13:13:11.759Z,77.20
2018-01-06T13:15:39.892Z,76.80
2018-01-06T13:18:08.122Z,77.40
2018-01-06T13:20:36.248Z,76.90
2018-01-06T13:23:04.404Z,76.70
2018-01-06T13:25:32.537Z,76.30
2018-01-06T13:28:00.652Z,76.00
2018-01-06T13:30:28.840Z,74.40
2018-01-06T13:32:57.063Z,75.40
2018-01-06T13:35:25.188Z,75.60
2018-01-06T13:37:53.327Z,75.60
2018-01-06T13:40:21.477Z,75.90
2018-01-06T13:42:49.620Z,75.90
2018-01-06T13:45:17.754Z,76.20
2018-01-06T13:47:45.892Z,76.60
2018-01-06T13:50:14.032Z,75.30
2018-01-06T13:52:42.173Z,75.20
2018-01-06T13:55:10.301Z,75.90
2018-01-06T13:57:38.429Z,76.30
2018-01-06T14:00:06.586Z,76.70
2018-01-06T14:02:34.707Z,76.30
2018-01-06T14:05:02.877Z,76.60
2018-01-06T14:07:31.048Z,77.10
2018-01-06T14:09:59.168Z,76.80
2018-01-06T14:12:27.308Z,77.00
2018-01-06T14:14:56.244Z,75.70
2018-01-06T14:17:24.416Z,76.20
2018-01-06T14:19:52.557Z,76.10
2018-01-06T14:22:21.436Z,76.40
2018-01-06T14:24:50.384Z,76.60
2018-01-06T14:27:18.509Z,76.50
2018-01-06T14:29:47.411Z,75.80
2018-01-06T14:32:16.968Z,76.30
2018-01-06T14:34:45.144Z,76.30
2018-01-06T14:37:13.308Z,75.50
2018-01-06T14:39:41.471Z,76.60
2018-01-06T14:42:09.600Z,76.30
2018-01-06T14:44:38.519Z,76.00
2018-01-06T14:47:06.691Z,75.00
2018-01-06T14:49:34.807Z,76.40
2018-01-06T14:52:02.957Z,76.30
2018-01-06T14:54:31.073Z,77.60
2018-01-06T14:56:59.288Z,77.60
2018-01-06T14:59:27.413Z,77.50
2018-01-06T15:01:55.540Z,77.60
2018-01-06T15:04:23.677Z,77.60
2018-01-06T15:06:52.557Z,78.40
2018-01-06T15:09:20.680Z,78.30
2018-01-06T15:11:48.808Z,79.00
2018-01-06T15:14:16.930Z,78.70
2018-01-06T15:16:45.064Z,78.80
2018-01-06T15:19:13.961Z,79.10
2018-01-06T15:21:42.863Z,78.80
2018-01-06T15:24:10.992Z,78.90
2018-01-06T15:26:39.118Z,78.90
2018-01-06T15:29:07.332Z,79.10
2018-01-06T15:31:35.442Z,79.20
2018-01-06T15:34:04.357Z,79.40
2018-01-06T15:36:32.468Z,79.30
2018-01-06T15:39:00.706Z,79.30
2018-01-06T15:41:28.851Z,80.00
2018-01-06T15:43:56.996Z,79.80
2018-01-06T15:46:25.136Z,81.00
2018-01-06T15:48:53.313Z,80.30
2018-01-06T15:51:21.469Z,80.50
2018-01-06T15:53:49.596Z,80.00
2018-01-06T15:56:18.561Z,79.70
2018-01-06T15:58:46.693Z,79.70
2018-01-06T16:01:15.648Z,79.50
2018-01-06T16:03:43.806Z,79.40
2018-01-06T16:06:11.954Z,79.90
2018-01-06T16:08:40.092Z,80.10
2018-01-06T16:11:08.977Z,80.30
2018-01-06T16:13:37.176Z,80.40
2018-01-06T16:16:06.084Z,79.70
2018-01-06T16:18:34.217Z,79.60
2018-01-06T16:21:02.348Z,79.40
2018-01-06T16:23:30.512Z,79.10
2018-01-06T16:25:58.656Z,79.10
2018-01-06T16:28:27.548Z,80.10
2018-01-06T16:30:56.485Z,80.40
2018-01-06T16:33:24.630Z,80.40
2018-01-06T16:35:52.766Z,80.20
2018-01-06T16:38:20.904Z,80.70
2018-01-06T16:40:49.055Z,80.40
2018-01-06T16:43:17.177Z,80.20
2018-01-06T16:45:45.317Z,80.40
2018-01-06T16:48:13.490Z,80.50
2018-01-06T16:50:41.637Z,80.40
2018-01-06T16:53:09.783Z,80.80
2018-01-06T16:55:37.910Z,81.30
2018-01-06T16:58:06.065Z,81.30
2018-01-06T17:00:34.232Z,81.30
2018-01-06T17:03:02.377Z,80.80
2018-01-06T17:05:30.519Z,80.80
2018-01-06T17:07:58.660Z,81.10
2018-01-06T17:10:26.820Z,80.70
2018-01-06T17:12:55.717Z,81.10
2018-01-06T17:15:23.848Z,81.10
2018-01-06T17:17:52.036Z,81.40
2018-01-06T17:20:20.172Z,81.40
2018-01-06T17:22:48.315Z,81.50
2018-01-06T17:25:16.455Z,81.00
2018-01-06T17:27:44.596Z,80.90
2018-01-06T17:30:12.815Z,81.10
2018-01-06T17:32:40.956Z,81.50
2018-01-06T17:35:09.082Z,81.90
2018-01-06T17:37:37.252Z,81.80
2018-01-06T17:40:06.146Z,81.40
2018-01-06T17:42:34.309Z,81.90
2018-01-06T17:45:03.240Z,81.50
2018-01-06T17:47:31.356Z,81.20
2018-01-06T17:49:59.496Z,81.50
2018-01-06T17:52:27.749Z,81.40
2018-01-06T17:54:55.889Z,81.50
2018-01-06T17:57:24.814Z,81.10
2018-01-06T17:59:52.913Z,81.10
2018-01-06T18:02:21.076Z,81.40
2018-01-06T18:04:49.233Z,81.90
2018-01-06T18:07:17.376Z,81.40
2018-01-06T18:09:46.308Z,81.60
2018-01-06T18:12:14.441Z,81.60
2018-01-06T18:14:43.365Z,81.40
2018-01-06T18:17:11.716Z,81.20
2018-01-06T18:19:40.640Z,81.50
2018-01-06T18:22:08.808Z,81.00
2018-01-06T18:24:36.924Z,81.10
2018-01-06T18:27:05.077Z,80.40
2018-01-06T18:29:33.208Z,80.20
2018-01-06T18:32:02.145Z,80.10
2018-01-06T18:34:30.272Z,79.70
2018-01-06T18:36:59.161Z,79.10
2018-01-06T18:39:28.058Z,79.80
2018-01-06T18:41:56.940Z,79.30
2018-01-06T18:44:25.861Z,79.90
2018-01-06T18:46:53.984Z,78.70
2018-01-06T18:49:22.107Z,78.70
2018-01-06T18:51:50.253Z,79.50
2018-01-06T18:54:18.382Z,79.30
2018-01-06T18:56:46.528Z,78.50
2018-01-06T18:59:14.712Z,79.30
2018-01-06T19:01:42.851Z,78.80
2018-01-06T19:04:10.972Z,79.20
2018-01-06T19:06:39.104Z,78.80
2018-01-06T19:09:07.246Z,78.60
2018-01-06T19:11:35.411Z,78.10
2018-01-06T19:14:03.540Z,78.50
2018-01-06T19:16:31.716Z,77.70
2018-01-06T19:18:59.856Z,77.90
2018-01-06T19:21:28.775Z,78.70
2018-01-06T19:23:56.910Z,78.60
2018-01-06T19:26:25.065Z,77.60
2018-01-06T19:28:53.199Z,77.80
2018-01-06T19:31:21.341Z,78.00
2018-01-06T19:33:50.241Z,78.50
2018-01-06T19:36:19.142Z,78.40
2018-01-06T19:38:48.064Z,78.30
2018-01-06T19:41:16.231Z,78.50
2018-01-06T19:43:44.344Z,78.40
2018-01-06T19:46:12.469Z,78.50
2018-01-06T19:48:40.607Z,77.90
2018-01-06T19:51:09.550Z,77.70
2018-01-06T19:53:37.665Z,77.70
2018-01-06T19:56:05.801Z,77.90
2018-01-06T19:58:33.928Z,77.80
2018-01-06T20:01:02.076Z,78.00
2018-01-06T20:03:30.237Z,78.30
2018-01-06T20:05:58.376Z,78.30
2018-01-06T20:08:26.577Z,77.50
2018-01-06T20:10:54.724Z,78.20
2018-01-06T20:13:22.856Z,78.20
2018-01-06T20:15:51.000Z,78.80
2018-01-06T20:18:19.157Z,77.80
2018-01-06T20:20:47.314Z,77.70
2018-01-06T20:23:15.448Z,78.50
2018-01-06T20:25:43.564Z,78.40
2018-01-06T20:28:11.704Z,78.70
2018-01-06T20:30:40.611Z,78.40
2018-01-06T20:33:09.520Z,78.00
2018-01-06T20:35:37.640Z,77.90
2018-01-06T20:38:05.764Z,78.00
2018-01-06T20:40:33.935Z,77.60
2018-01-06T20:43:02.053Z,77.90
2018-01-06T20:45:30.230Z,77.60
2018-01-06T20:47:58.410Z,76.60
2018-01-06T20:50:26.494Z,77.50
2018-01-06T20:52:54.653Z,77.60
2018-01-06T20:55:22.782Z,77.00
2018-01-06T20:57:50.952Z,77.00
2018-01-06T21:00:19.125Z,77.10
2018-01-06T21:02:47.259Z,76.60
2018-01-06T21:05:15.436Z,76.40
2018-01-06T21:07:43.650Z,76.20
2018-01-06T21:10:11.776Z,76.70
2018-01-06T21:12:39.900Z,76.20
2018-01-06T21:15:08.016Z,76.90
2018-01-06T21:17:36.211Z,76.00
2018-01-06T21:20:05.134Z,75.80
2018-01-06T21:22:33.282Z,75.30
2018-01-06T21:25:02.303Z,75.50
2018-01-06T21:27:30.421Z,75.40
2018-01-06T21:29:58.555Z,75.60
2018-01-06T21:32:26.683Z,75.90
2018-01-06T21:34:54.836Z,75.90
2018-01-06T21:37:22.968Z,76.00
2018-01-06T21:39:51.103Z,76.30
2018-01-06T21:42:19.256Z,75.50
2018-01-06T21:44:47.404Z,75.50
2018-01-06T21:47:15.558Z,75.30
2018-01-06T21:49:44.436Z,75.40
2018-01-06T21:52:13.408Z,76.20
2018-01-06T21:54:41.567Z,76.10
2018-01-06T21:57:09.695Z,76.60
2018-01-06T21:59:37.843Z,76.90
2018-01-06T22:02:06.780Z,76.50
2018-01-06T22:04:34.900Z,77.40
2018-01-06T22:07:03.800Z,78.40
2018-01-06T22:09:32.710Z,77.90
2018-01-06T22:12:00.878Z,77.90
2018-01-06T22:14:29.773Z,78.30
2018-01-06T22:16:57.895Z,78.50
2018-01-06T22:19:26.072Z,79.00
2018-01-06T22:21:54.194Z,79.50
2018-01-06T22:24:22.345Z,79.60
2018-01-06T22:26:51.230Z,78.80
2018-01-06T22:29:19.352Z,78.30
2018-01-06T22:31:47.480Z,77.60
2018-01-06T22:34:16.387Z,78.50
2018-01-06T22:36:45.325Z,78.70
2018-01-06T22:39:13.448Z,78.70
2018-01-06T22:41:42.354Z,79.10
2018-01-06T22:44:10.554Z,78.90
2018-01-06T22:46:38.745Z,78.90
2018-01-06T22:49:06.893Z,78.30
2018-01-06T22:51:35.033Z,78.70
2018-01-06T22:54:03.930Z,78.50
2018-01-06T22:56:32.837Z,77.70
2018-01-06T22:59:00.978Z,77.80
2018-01-06T23:01:29.161Z,77.90
2018-01-06T23:03:57.274Z,78.60
2018-01-06T23:06:25.472Z,78.10
2018-01-06T23:08:53.624Z,78.70
2018-01-06T23:11:21.764Z,78.20
2018-01-06T23:13:50.708Z,79.50
2018-01-06T23:16:18.852Z,79.50
2018-01-06T23:18:47.003Z,78.90
2018-01-06T23:21:15.953Z,79.20
2018-01-06T23:23:44.089Z,79.50
2018-01-06T23:26:12.288Z,79.40
2018-01-06T23:28:40.437Z,79.90
2018-01-06T23:31:08.590Z,79.70
2018-01-06T23:33:37.491Z,80.00
2018-01-06T23:36:05.662Z,79.80
2018-01-06T23:38:33.762Z,80.10
2018-01-06T23:41:01.885Z,80.10
2018-01-06T23:43:30.095Z,79.80
2018-01-06T23:45:58.224Z,80.60
2018-01-06T23:48:26.381Z,80.50
2018-01-06T23:50:54.532Z,80.00
2018-01-06T23:53:22.664Z,80.50
2018-01-06T23:55:51.576Z,81.00
2018-01-06T23:58:19.719Z,80.50
